Topock, AZ (86436)

8:45 PM MST on August 28, 2014 (GMT -0700)
Needles | Change Station
CLOSE
Current Station
Airport
Location: Needles,
Elevation: 981 ft
Nearby Weather Stations

Elev 981 ft 34.77 °N, 114.62 °W | Updated 49 minutes ago

Clear
Clear
97 °F
Feels Like 97 °F
N
7
Wind Variable Wind from West

Today
High -- | Low -- °F
--% Chance of Precip.
Yesterday
High -- | Low -- °F
Precip. -- in
6:08 AM 7:09 PM
Waxing Crescent, 11% visible
Pressure 29.69 in
Visibility 10.0 miles
Clouds Clear
Dew Point 37 °F
Humidity 12%
Rainfall 0.00 in
Snow Depth Not available.
UV 0 out of 12
Pollen 7.00 out of 12
Air Quality Not available.
Flu Activity Not available.
METAR KEED 290256Z AUTO 26006KT 10SM CLR 36/03 A2979 RMK AO2 SLP053 T03610028 55003

More Conditions Fewer Conditions

Pressure 29.69 in
Visibility 10.0 miles
Clouds Clear
Dew Point 37 °F
Humidity 12%
Rainfall 0.00 in
Snow Depth Not available.
UV 0 out of 12
Pollen 7.00 out of 12
Air Quality Not available.
Flu Activity Not available.
METAR KEED 290256Z AUTO 26006KT 10SM CLR 36/03 A2979 RMK AO2 SLP053 T03610028 55003

More Conditions Fewer Conditions

10-Day Weather Forecast

Almanac

Astronomy

Aug. 28, 2014 Rise Set
Actual Time 6:08 AM MST 7:09 PM MST
Civil Twilight 5:42 AM MST 7:35 PM MST
Nautical Twilight 5:11 AM MST 8:06 PM MST
Astronomical Twilight 4:39 AM MST 8:37 PM MST
Moon 8:55 AM MST (8/28) 8:45 PM MST (8/28)
Length of Visible Light 13h 53m
Length of Day
13h 01m
Tomorrow will be 2m 3s shorter.
Waxing Crescent, 11% of the Moon is Illuminated
Today
Waxing Crescent
Sep 2
First Quarter
Sep 8
Full
Sep 15
Last Quarter
Sep 24
New

Today's Extremes

State Highs State Lows

Community

WunderPhotos

Upload Photos

1,748,182 photos uploaded!

Nearby

Snow Depth

Station Depth Elevation
Snowslide Canyon 0 in 9730 ft
Workman Creek 0 in 6900 ft
Beaver Head 13 in 7990 ft

Earthquake Activity

City Distance Mag. Time & Date
No recent earthquake activity has been reported nearby.
Minimum magnitude displayed is 2.5.

Coastal Water Temperatures

Place Temperature
No Stations Reporting

Nearby Weather Stations